createdAt,value
2023-05-19T00:02:27.431Z,38.95
2023-05-19T00:04:55.320Z,12.35
2023-05-19T00:07:24.311Z,26.13
2023-05-19T00:09:51.670Z,15.55
2023-05-19T00:12:18.695Z,22.80
2023-05-19T00:14:45.880Z,12.63
2023-05-19T00:17:12.939Z,12.52
2023-05-19T00:19:40.390Z,10.60
2023-05-19T00:22:07.219Z,13.10
2023-05-19T00:24:34.786Z,30.17
2023-05-19T00:27:01.616Z,22.50
2023-05-19T00:29:29.407Z,18.05
2023-05-19T00:31:56.725Z,12.60
2023-05-19T00:34:23.753Z,9.40
2023-05-19T00:36:51.202Z,12.98
2023-05-19T00:39:18.060Z,12.32
2023-05-19T00:41:45.122Z,12.65
2023-05-19T00:44:11.942Z,14.70
2023-05-19T00:46:39.216Z,11.30
2023-05-19T00:49:06.160Z,16.17
2023-05-19T00:51:33.220Z,11.52
2023-05-19T00:54:01.884Z,26.60
2023-05-19T00:56:29.096Z,14.13
2023-05-19T00:58:57.403Z,20.90
2023-05-19T01:01:26.923Z,15.50
2023-05-19T01:03:56.842Z,12.68
2023-05-19T01:06:25.877Z,12.82
2023-05-19T01:08:53.675Z,9.98
2023-05-19T01:11:21.731Z,16.65
2023-05-19T01:13:49.000Z,28.08
2023-05-19T01:16:38.670Z,19.33
2023-05-19T01:19:22.033Z,27.27
2023-05-19T01:21:54.996Z,15.55
2023-05-19T01:24:24.835Z,20.75
2023-05-19T01:27:06.583Z,18.67
2023-05-19T01:30:02.780Z,18.55
2023-05-19T01:32:30.715Z,11.85
2023-05-19T01:34:58.498Z,17.33
2023-05-19T01:37:26.251Z,15.60
2023-05-19T01:39:53.342Z,14.48
2023-05-19T01:42:20.955Z,22.00
2023-05-19T01:44:47.992Z,18.13
2023-05-19T01:47:15.299Z,12.18
2023-05-19T01:49:42.738Z,18.85
2023-05-19T01:52:09.746Z,17.73
2023-05-19T01:54:36.590Z,23.35
2023-05-19T01:57:20.618Z,25.85
2023-05-19T02:00:10.065Z,16.73
2023-05-19T02:03:13.885Z,24.00
2023-05-19T02:06:15.821Z,24.02
2023-05-19T02:09:04.006Z,15.70
2023-05-19T02:11:42.357Z,18.27
2023-05-19T02:14:15.439Z,23.13
2023-05-19T02:16:46.498Z,14.52
2023-05-19T02:19:25.191Z,16.10
2023-05-19T02:21:52.413Z,15.77
2023-05-19T02:24:23.077Z,19.38
2023-05-19T02:26:52.250Z,18.80
2023-05-19T02:29:20.035Z,19.85
2023-05-19T02:31:47.449Z,11.77
2023-05-19T02:34:14.570Z,17.30
2023-05-19T02:36:43.228Z,31.58
2023-05-19T02:39:11.264Z,19.40
2023-05-19T02:41:39.363Z,18.90
2023-05-19T02:44:06.499Z,13.73
2023-05-19T02:46:34.010Z,25.77
2023-05-19T02:49:00.975Z,14.82
2023-05-19T02:51:27.891Z,18.15
2023-05-19T02:53:54.985Z,48.97
2023-05-19T02:56:21.965Z,15.95
2023-05-19T02:58:48.923Z,22.60
2023-05-19T03:01:16.735Z,26.90
2023-05-19T03:03:43.832Z,17.35
2023-05-19T03:06:10.754Z,22.77
2023-05-19T03:08:38.804Z,20.23
2023-05-19T03:11:07.760Z,19.58
2023-05-19T03:13:35.371Z,25.45
2023-05-19T03:16:03.755Z,19.92
2023-05-19T03:18:31.175Z,25.02
2023-05-19T03:20:58.063Z,29.38
2023-05-19T03:23:26.660Z,26.85
2023-05-19T03:25:56.811Z,32.95
2023-05-19T03:28:23.685Z,39.17
2023-05-19T03:30:51.081Z,42.25
2023-05-19T03:33:21.453Z,44.10
2023-05-19T03:35:48.418Z,52.13
2023-05-19T03:38:16.040Z,31.38
2023-05-19T03:40:50.635Z,31.15
2023-05-19T03:43:17.604Z,40.53
2023-05-19T03:45:49.562Z,38.45
2023-05-19T03:48:36.508Z,64.47
2023-05-19T03:51:21.967Z,79.40
2023-05-19T03:53:52.762Z,47.13
2023-05-19T03:56:23.183Z,67.30
2023-05-19T03:58:50.097Z,51.28
2023-05-19T04:01:17.872Z,52.38
2023-05-19T04:03:44.879Z,74.13
2023-05-19T04:06:13.042Z,85.80
2023-05-19T04:08:40.275Z,47.50
2023-05-19T04:11:07.269Z,57.78
2023-05-19T04:13:34.494Z,65.93
2023-05-19T04:16:01.795Z,57.95
2023-05-19T04:18:29.363Z,60.75
2023-05-19T04:20:56.644Z,51.83
2023-05-19T04:23:23.717Z,57.22
2023-05-19T04:25:50.720Z,58.65
2023-05-19T04:28:18.333Z,30.05
2023-05-19T04:30:48.691Z,39.28
2023-05-19T04:33:16.073Z,28.92
2023-05-19T04:35:44.236Z,33.22
2023-05-19T04:38:12.479Z,47.63
2023-05-19T04:40:42.369Z,53.97
2023-05-19T04:43:09.716Z,61.15
2023-05-19T04:45:37.860Z,41.03
2023-05-19T04:48:06.118Z,44.03
2023-05-19T04:50:34.475Z,38.88
2023-05-19T04:53:01.657Z,70.32
2023-05-19T04:55:28.998Z,46.60
2023-05-19T04:57:56.180Z,43.30
2023-05-19T05:00:23.419Z,38.05
2023-05-19T05:02:58.194Z,43.83
2023-05-19T05:05:27.224Z,45.13
2023-05-19T05:07:54.265Z,33.55
2023-05-19T05:10:23.596Z,48.67
2023-05-19T05:12:51.052Z,29.88
2023-05-19T05:15:18.475Z,30.17
2023-05-19T05:17:48.783Z,26.92
2023-05-19T05:20:16.538Z,33.95
2023-05-19T05:22:43.620Z,25.65
2023-05-19T05:25:11.601Z,24.45
2023-05-19T05:27:38.632Z,23.33
2023-05-19T05:30:08.276Z,26.92
2023-05-19T05:32:35.484Z,34.97
2023-05-19T05:35:08.212Z,79.47
2023-05-19T05:37:35.628Z,36.85
2023-05-19T05:40:04.098Z,44.47
2023-05-19T05:42:31.458Z,33.50
2023-05-19T05:44:58.429Z,41.83
2023-05-19T05:47:26.228Z,27.10
2023-05-19T05:49:53.693Z,21.23
2023-05-19T05:52:22.130Z,27.02
2023-05-19T05:54:49.480Z,21.17
2023-05-19T05:57:19.051Z,23.92
2023-05-19T05:59:47.292Z,15.20
2023-05-19T06:02:15.165Z,22.13
2023-05-19T06:04:42.065Z,25.10
2023-05-19T06:07:09.102Z,17.67
2023-05-19T06:09:38.241Z,52.33
2023-05-19T06:12:07.190Z,35.85
2023-05-19T06:17:34.717Z,29.23
2023-05-19T06:20:02.870Z,24.45
2023-05-19T06:22:29.811Z,21.05
2023-05-19T06:24:56.905Z,21.67
2023-05-19T06:27:24.035Z,21.00
2023-05-19T06:29:51.296Z,19.30
2023-05-19T06:32:18.644Z,19.20
2023-05-19T06:34:46.237Z,19.58
2023-05-19T06:37:15.003Z,18.90
2023-05-19T06:39:41.962Z,21.83
2023-05-19T06:42:08.945Z,21.15
2023-05-19T06:44:54.457Z,16.77
2023-05-19T06:47:21.455Z,15.98
2023-05-19T06:49:54.972Z,11.40
2023-05-19T06:52:25.466Z,23.27
2023-05-19T06:54:53.732Z,19.27
2023-05-19T06:57:21.237Z,25.00
2023-05-19T06:59:51.112Z,20.75
2023-05-19T07:02:18.664Z,15.80
2023-05-19T07:04:45.646Z,15.38
2023-05-19T07:07:15.723Z,15.68
2023-05-19T07:09:43.370Z,18.73
2023-05-19T07:12:10.524Z,19.30
2023-05-19T07:14:39.010Z,13.60
2023-05-19T07:17:06.873Z,15.93
2023-05-19T07:19:36.048Z,19.13
2023-05-19T07:22:03.679Z,34.35
2023-05-19T07:24:31.646Z,14.82
2023-05-19T07:26:58.797Z,13.15
2023-05-19T07:29:25.926Z,17.80
2023-05-19T07:31:54.505Z,11.80
2023-05-19T07:34:22.105Z,13.00
2023-05-19T07:36:48.950Z,16.23
2023-05-19T07:39:16.021Z,21.50
2023-05-19T07:41:43.047Z,20.17
2023-05-19T07:44:11.147Z,15.18
2023-05-19T07:46:38.154Z,15.18
2023-05-19T07:49:05.233Z,17.02
2023-05-19T07:51:32.129Z,14.70
2023-05-19T07:53:59.212Z,11.70
2023-05-19T07:56:26.158Z,12.95
2023-05-19T07:58:53.273Z,12.60
2023-05-19T08:01:20.130Z,25.60
2023-05-19T08:03:47.220Z,15.40
2023-05-19T08:06:14.261Z,17.52
2023-05-19T08:08:42.268Z,27.77
2023-05-19T08:11:09.168Z,17.90
2023-05-19T08:13:36.079Z,13.50
2023-05-19T08:16:03.292Z,12.50
2023-05-19T08:18:30.187Z,8.68
2023-05-19T08:20:57.172Z,17.13
2023-05-19T08:23:24.336Z,19.90
2023-05-19T08:25:51.354Z,20.17
2023-05-19T08:28:18.413Z,11.13
2023-05-19T08:30:45.274Z,13.57
2023-05-19T08:33:12.165Z,12.80
2023-05-19T08:35:39.198Z,9.80
2023-05-19T08:38:44.718Z,17.15
2023-05-19T08:41:11.829Z,11.70
2023-05-19T08:43:39.989Z,12.68
2023-05-19T08:46:08.445Z,11.90
2023-05-19T08:48:35.681Z,9.20
2023-05-19T08:51:26.970Z,13.55
2023-05-19T08:53:58.294Z,10.13
2023-05-19T08:56:27.048Z,19.77
2023-05-19T08:58:54.608Z,14.35
2023-05-19T09:01:24.325Z,11.65
2023-05-19T09:03:52.440Z,13.73
2023-05-19T09:06:19.677Z,10.57
2023-05-19T09:08:47.301Z,12.25
2023-05-19T09:11:14.742Z,10.07
2023-05-19T09:13:42.241Z,10.70
2023-05-19T09:16:09.584Z,11.73
2023-05-19T09:18:39.225Z,9.23
2023-05-19T09:21:07.362Z,12.95
2023-05-19T09:23:35.092Z,9.60
2023-05-19T09:26:08.312Z,12.05
2023-05-19T09:28:38.113Z,12.93
2023-05-19T09:31:09.716Z,8.73
2023-05-19T09:33:39.036Z,9.57
2023-05-19T09:36:08.650Z,8.52
2023-05-19T09:38:36.585Z,15.07
2023-05-19T09:41:04.929Z,12.40
2023-05-19T09:43:33.866Z,10.52
2023-05-19T09:46:01.920Z,9.27
2023-05-19T09:48:29.107Z,10.65
2023-05-19T09:50:58.273Z,11.27
2023-05-19T09:53:25.742Z,23.05
2023-05-19T09:55:59.164Z,28.02
2023-05-19T09:58:27.181Z,27.40
2023-05-19T10:00:57.131Z,25.25
2023-05-19T10:03:25.852Z,8.10
2023-05-19T10:05:53.572Z,94.45
2023-05-19T10:08:21.665Z,29.73
2023-05-19T10:10:48.627Z,10.95
2023-05-19T10:13:16.646Z,8.20
2023-05-19T10:15:57.381Z,7.97
2023-05-19T10:18:27.253Z,11.10
2023-05-19T10:20:54.696Z,12.05
2023-05-19T10:23:22.823Z,11.68
2023-05-19T10:25:51.782Z,9.40
2023-05-19T10:28:25.085Z,11.05
2023-05-19T10:30:54.873Z,7.78
2023-05-19T10:33:29.715Z,19.70
2023-05-19T10:36:35.905Z,15.90
2023-05-19T10:39:18.443Z,10.70
2023-05-19T10:41:54.477Z,9.57
2023-05-19T10:44:45.683Z,9.95
2023-05-19T10:47:12.958Z,5.93
2023-05-19T10:49:40.362Z,9.60
2023-05-19T10:52:26.148Z,8.63
2023-05-19T10:54:54.878Z,8.88
2023-05-19T10:57:28.882Z,8.45
2023-05-19T10:59:57.481Z,8.88
2023-05-19T11:02:38.531Z,12.20
2023-05-19T11:05:20.767Z,7.68
2023-05-19T11:08:04.831Z,7.57
2023-05-19T11:10:32.632Z,7.32
2023-05-19T11:12:59.973Z,8.27
2023-05-19T11:15:27.963Z,11.63
2023-05-19T11:17:55.551Z,10.80
2023-05-19T11:20:24.427Z,8.13
2023-05-19T11:23:08.406Z,8.07
2023-05-19T11:25:47.133Z,9.95
2023-05-19T11:28:25.846Z,8.18
2023-05-19T11:30:55.232Z,11.68
2023-05-19T11:33:27.421Z,9.07
2023-05-19T11:35:58.783Z,6.85
2023-05-19T11:38:28.461Z,11.25
2023-05-19T11:40:56.514Z,8.65
2023-05-19T11:43:25.046Z,8.85
2023-05-19T11:45:52.334Z,9.68
2023-05-19T11:48:22.980Z,7.15
2023-05-19T11:50:50.523Z,6.32
2023-05-19T11:53:20.189Z,9.85
2023-05-19T11:55:48.594Z,11.20
2023-05-19T11:58:17.318Z,13.93
2023-05-19T12:00:47.936Z,9.43
2023-05-19T12:03:15.926Z,7.93
2023-05-19T12:05:48.808Z,7.43
2023-05-19T12:08:19.417Z,9.70
2023-05-19T12:10:52.864Z,7.30
2023-05-19T12:13:21.130Z,9.38
2023-05-19T12:15:48.299Z,10.85
2023-05-19T12:18:15.383Z,15.38
2023-05-19T12:20:42.503Z,9.15
2023-05-19T12:23:09.530Z,8.75
2023-05-19T12:25:36.950Z,5.75
2023-05-19T12:28:04.961Z,9.05
2023-05-19T12:30:33.353Z,7.85
2023-05-19T12:33:02.225Z,13.40
2023-05-19T12:35:32.321Z,7.50
2023-05-19T12:38:04.020Z,7.80
2023-05-19T12:40:31.390Z,11.60
2023-05-19T12:42:59.415Z,10.25
2023-05-19T12:45:28.943Z,6.13
2023-05-19T12:47:56.396Z,11.15
2023-05-19T12:50:31.282Z,9.43
2023-05-19T12:53:00.305Z,7.00
2023-05-19T12:55:27.325Z,7.07
2023-05-19T12:57:58.625Z,10.43
2023-05-19T13:00:28.966Z,8.75
2023-05-19T13:03:00.396Z,13.70
2023-05-19T13:05:29.138Z,8.00
2023-05-19T13:07:57.373Z,7.28
2023-05-19T13:10:27.203Z,6.85
2023-05-19T13:12:59.020Z,9.00
2023-05-19T13:15:28.157Z,6.25
2023-05-19T13:17:55.572Z,7.38
2023-05-19T13:20:22.871Z,8.05
2023-05-19T13:22:50.074Z,6.63
2023-05-19T13:25:17.374Z,6.53
2023-05-19T13:27:47.787Z,6.70
2023-05-19T13:30:16.347Z,7.65
2023-05-19T13:32:43.375Z,11.80
2023-05-19T13:35:11.037Z,11.13
2023-05-19T13:37:39.585Z,8.90
2023-05-19T13:40:07.676Z,9.45
2023-05-19T13:42:35.658Z,12.13
2023-05-19T13:45:03.073Z,11.75
2023-05-19T13:47:30.503Z,8.18
2023-05-19T13:49:57.822Z,7.40
2023-05-19T13:52:25.322Z,10.07
2023-05-19T13:54:54.792Z,9.73
2023-05-19T13:57:22.811Z,11.73
2023-05-19T14:00:01.835Z,8.73
2023-05-19T14:02:39.474Z,9.68
2023-05-19T14:05:08.395Z,11.35
2023-05-19T14:07:35.889Z,8.20
2023-05-19T14:10:04.158Z,7.57
2023-05-19T14:12:41.457Z,7.82
2023-05-19T14:15:14.958Z,10.23
2023-05-19T14:17:42.091Z,6.40
2023-05-19T14:20:10.160Z,7.55
2023-05-19T14:22:37.158Z,7.30
2023-05-19T14:25:04.423Z,8.77
2023-05-19T14:27:31.318Z,8.15
2023-05-19T14:29:58.397Z,5.22
2023-05-19T14:32:26.813Z,6.35
2023-05-19T14:34:55.810Z,9.68
2023-05-19T14:37:22.690Z,7.55
2023-05-19T14:39:49.989Z,6.50
2023-05-19T14:42:16.936Z,5.45
2023-05-19T14:44:44.160Z,7.88
2023-05-19T14:47:12.564Z,6.20
2023-05-19T14:49:39.761Z,6.90
2023-05-19T14:52:07.277Z,6.47
2023-05-19T14:54:34.358Z,8.52
2023-05-19T14:57:01.871Z,11.65
2023-05-19T14:59:29.764Z,8.52
2023-05-19T15:01:56.802Z,7.85
2023-05-19T15:04:23.801Z,8.13
2023-05-19T15:07:05.946Z,7.38
2023-05-19T15:09:36.755Z,7.95
2023-05-19T15:12:04.068Z,12.85
2023-05-19T15:14:31.446Z,6.70
2023-05-19T15:16:59.099Z,5.43
2023-05-19T15:19:26.429Z,7.47
2023-05-19T15:21:53.745Z,8.43
2023-05-19T15:24:20.742Z,6.72
2023-05-19T15:26:47.853Z,5.15
2023-05-19T15:29:15.012Z,12.43
2023-05-19T15:31:42.203Z,5.97
2023-05-19T15:34:09.321Z,8.98
2023-05-19T15:36:36.451Z,9.75
2023-05-19T15:39:03.964Z,8.02
2023-05-19T15:41:31.050Z,9.88
2023-05-19T15:44:00.567Z,5.35
2023-05-19T15:46:31.082Z,7.85
2023-05-19T15:48:58.311Z,8.85
2023-05-19T15:51:25.603Z,8.93
2023-05-19T15:53:52.751Z,6.10
2023-05-19T15:56:20.034Z,12.75
2023-05-19T15:58:47.320Z,11.23
2023-05-19T16:01:15.491Z,6.93
2023-05-19T16:03:42.850Z,6.97
2023-05-19T16:06:09.926Z,11.25
2023-05-19T16:08:38.094Z,7.68
2023-05-19T16:11:05.284Z,7.82
2023-05-19T16:13:33.807Z,10.52
2023-05-19T16:16:00.989Z,7.03
2023-05-19T16:18:29.485Z,5.20
2023-05-19T16:20:56.638Z,7.35
2023-05-19T16:23:25.186Z,9.18
2023-05-19T16:25:52.494Z,4.90
2023-05-19T16:28:19.766Z,7.35
2023-05-19T16:30:47.258Z,9.90
2023-05-19T16:33:14.444Z,7.80
2023-05-19T16:35:41.500Z,7.93
2023-05-19T16:38:08.711Z,10.75
2023-05-19T16:40:36.188Z,7.97
2023-05-19T16:43:03.362Z,8.00
2023-05-19T16:45:30.721Z,10.32
2023-05-19T16:47:57.669Z,8.57
2023-05-19T16:50:24.755Z,6.05
2023-05-19T16:52:51.887Z,8.43
2023-05-19T16:55:20.472Z,8.60
2023-05-19T16:57:47.932Z,16.95
2023-05-19T17:00:15.681Z,25.25
2023-05-19T17:02:42.900Z,8.40
2023-05-19T17:05:10.033Z,6.70
2023-05-19T17:07:37.234Z,8.88
2023-05-19T17:10:04.601Z,6.72
2023-05-19T17:12:31.746Z,10.68
2023-05-19T17:14:58.633Z,9.05
2023-05-19T17:17:26.084Z,8.43
2023-05-19T17:19:53.134Z,11.50
2023-05-19T17:22:20.412Z,13.23
2023-05-19T17:24:47.560Z,8.82
2023-05-19T17:27:15.471Z,13.82
2023-05-19T17:29:43.371Z,10.68
2023-05-19T17:32:12.730Z,10.70
2023-05-19T17:34:39.873Z,11.80
2023-05-19T17:37:06.903Z,12.18
2023-05-19T17:39:34.150Z,7.68
2023-05-19T17:42:01.265Z,23.83
2023-05-19T17:44:28.121Z,13.48
2023-05-19T17:46:55.111Z,12.65
2023-05-19T17:49:23.222Z,14.40
2023-05-19T17:51:50.602Z,11.95
2023-05-19T17:54:17.913Z,16.90
2023-05-19T17:56:45.764Z,13.98
2023-05-19T17:59:13.271Z,13.90
2023-05-19T18:01:41.154Z,14.77
2023-05-19T18:04:08.937Z,11.10
2023-05-19T18:06:41.034Z,9.93
2023-05-19T18:09:09.246Z,12.65
2023-05-19T18:11:36.244Z,14.95
2023-05-19T18:14:04.094Z,17.40
2023-05-19T18:16:31.324Z,16.48
2023-05-19T18:18:58.591Z,13.55
2023-05-19T18:21:26.111Z,13.45
2023-05-19T18:23:53.854Z,14.23
2023-05-19T18:26:21.724Z,14.57
2023-05-19T18:28:48.837Z,21.90
2023-05-19T18:31:19.370Z,14.32
2023-05-19T18:33:47.379Z,12.30
2023-05-19T18:36:19.078Z,13.73
2023-05-19T18:38:47.785Z,14.15
2023-05-19T18:41:15.000Z,16.42
2023-05-19T18:43:42.123Z,20.35
2023-05-19T18:46:09.498Z,15.98
2023-05-19T18:48:36.853Z,20.38
2023-05-19T18:51:03.998Z,18.05
2023-05-19T18:53:34.984Z,19.38
2023-05-19T18:56:03.942Z,18.77
2023-05-19T18:58:30.921Z,14.25
2023-05-19T19:00:58.528Z,13.98
2023-05-19T19:03:26.232Z,17.02
2023-05-19T19:06:00.073Z,18.08
2023-05-19T19:08:27.221Z,17.67
2023-05-19T19:10:59.295Z,18.52
2023-05-19T19:13:26.432Z,13.15
2023-05-19T19:15:53.434Z,15.85
2023-05-19T19:18:20.512Z,14.45
2023-05-19T19:20:47.571Z,16.05
2023-05-19T19:23:14.773Z,18.05
2023-05-19T19:25:41.843Z,15.68
2023-05-19T19:28:08.890Z,18.10
2023-05-19T19:30:36.176Z,21.25
2023-05-19T19:33:04.846Z,15.77
2023-05-19T19:35:33.785Z,13.35
2023-05-19T19:38:00.764Z,19.80
2023-05-19T19:40:27.891Z,22.70
2023-05-19T19:42:54.940Z,12.63
2023-05-19T19:45:22.016Z,13.55
2023-05-19T19:47:49.001Z,19.15
2023-05-19T19:50:16.700Z,20.48
2023-05-19T19:52:43.752Z,15.57
2023-05-19T19:55:10.862Z,22.35
2023-05-19T19:57:37.951Z,18.40
2023-05-19T20:00:08.674Z,15.13
2023-05-19T20:02:45.497Z,16.23
2023-05-19T20:05:18.883Z,15.75
2023-05-19T20:07:46.996Z,14.15
2023-05-19T20:10:14.149Z,15.48
2023-05-19T20:12:41.712Z,18.05
2023-05-19T20:15:09.432Z,9.95
2023-05-19T20:17:36.673Z,12.88
2023-05-19T20:20:08.452Z,16.40
2023-05-19T20:22:36.223Z,16.30
2023-05-19T20:25:03.254Z,16.73
2023-05-19T20:27:30.170Z,11.02
2023-05-19T20:29:57.346Z,14.70
2023-05-19T20:32:24.329Z,12.43
2023-05-19T20:34:51.492Z,18.23
2023-05-19T20:37:18.384Z,13.82
2023-05-19T20:39:45.501Z,12.48
2023-05-19T20:42:14.810Z,12.32
2023-05-19T20:44:42.131Z,13.30
2023-05-19T20:47:09.102Z,12.73
2023-05-19T20:49:36.234Z,17.50
2023-05-19T20:52:03.434Z,18.65
2023-05-19T20:54:30.626Z,10.10
2023-05-19T20:56:57.734Z,11.55
2023-05-19T20:59:24.598Z,14.23
2023-05-19T21:01:52.954Z,17.77
2023-05-19T21:04:20.118Z,15.07
2023-05-19T21:06:47.299Z,12.00
2023-05-19T21:09:14.993Z,13.60
2023-05-19T21:11:41.974Z,13.90
2023-05-19T21:14:08.914Z,6.70
2023-05-19T21:16:39.167Z,11.43
2023-05-19T21:19:07.035Z,11.40
2023-05-19T21:21:34.451Z,14.57
2023-05-19T21:24:01.445Z,10.85
2023-05-19T21:26:28.339Z,10.60
2023-05-19T21:28:55.386Z,10.75
2023-05-19T21:31:22.325Z,14.20
2023-05-19T21:33:49.538Z,10.13
2023-05-19T21:36:16.968Z,12.52
2023-05-19T21:38:44.125Z,10.52
2023-05-19T21:41:11.474Z,11.70
2023-05-19T21:43:38.512Z,12.55
2023-05-19T21:46:05.708Z,11.45
2023-05-19T21:48:32.814Z,11.05
2023-05-19T21:50:59.826Z,16.10
2023-05-19T21:53:26.987Z,14.77
2023-05-19T21:55:53.986Z,14.40
2023-05-19T21:58:21.140Z,10.00
2023-05-19T22:00:53.315Z,17.70
2023-05-19T22:03:21.969Z,14.52
2023-05-19T22:05:50.366Z,11.35
2023-05-19T22:08:18.631Z,13.35
2023-05-19T22:10:48.570Z,13.60
2023-05-19T22:13:15.916Z,12.10
2023-05-19T22:15:42.893Z,8.75
2023-05-19T22:18:09.922Z,15.55
2023-05-19T22:20:38.072Z,10.85
2023-05-19T22:23:06.027Z,15.55
2023-05-19T22:25:33.198Z,12.57
2023-05-19T22:28:01.464Z,17.70
2023-05-19T22:30:28.462Z,12.02
2023-05-19T22:32:55.488Z,12.48
2023-05-19T22:35:22.697Z,13.10
2023-05-19T22:37:49.813Z,9.63
2023-05-19T22:40:16.853Z,15.55
2023-05-19T22:42:43.906Z,14.23
2023-05-19T22:45:11.195Z,9.13
2023-05-19T22:47:38.264Z,10.70
2023-05-19T22:50:05.792Z,17.92
2023-05-19T22:52:32.844Z,17.30
2023-05-19T22:54:59.960Z,17.40
2023-05-19T22:57:27.037Z,12.75
2023-05-19T22:59:54.161Z,13.07
2023-05-19T23:02:21.126Z,12.27
2023-05-19T23:04:48.459Z,11.27
2023-05-19T23:07:15.564Z,13.10
2023-05-19T23:09:42.655Z,13.27
2023-05-19T23:12:09.674Z,12.27
2023-05-19T23:14:36.820Z,12.27
2023-05-19T23:17:03.900Z,17.95
2023-05-19T23:19:33.279Z,13.18
2023-05-19T23:22:00.349Z,18.90
2023-05-19T23:24:27.477Z,15.15
2023-05-19T23:26:54.920Z,8.95
2023-05-19T23:29:21.789Z,16.27
2023-05-19T23:31:48.923Z,12.95
2023-05-19T23:34:15.976Z,11.15
2023-05-19T23:36:42.963Z,15.18
2023-05-19T23:39:09.828Z,12.10
2023-05-19T23:41:37.342Z,10.60
2023-05-19T23:44:04.503Z,15.30
2023-05-19T23:46:31.606Z,12.93
2023-05-19T23:48:58.551Z,11.95
2023-05-19T23:51:25.657Z,13.32
2023-05-19T23:53:52.806Z,15.45
2023-05-19T23:56:19.796Z,14.75
2023-05-19T23:58:46.928Z,12.45
